Time;durP1;ratioP1;P1;durP2;ratioP2;P2;SDS_P1;SDS_P2;PMS_P1;PMS_P2;Temp;Humidity;BMP_temperature;BMP_pressure;BME280_temperature;BME280_humidity;BME280_pressure;Samples;Min_cycle;Max_cycle;Signal;HPM_P1;HPM_P2
2021/04/28 00:01:03;;;;;;;30.83;19.10;;;;;;;;;;5047956;28;20047;-66
2021/04/28 00:03:29;;;;;;;40.95;18.85;;;;;;;;;;5047920;28;20029;-66
2021/04/28 00:05:54;;;;;;;34.05;18.55;;;;;;;;;;5048283;28;20021;-66
2021/04/28 00:08:19;;;;;;;35.10;18.65;;;;;;;;;;5047321;28;20033;-66
2021/04/28 00:10:45;;;;;;;33.70;17.85;;;;;;;;;;5047907;28;20040;-66
2021/04/28 00:13:12;;;;;;;30.95;19.15;;;;;;;;;;5047430;28;20025;-65
2021/04/28 00:15:38;;;;;;;36.80;20.45;;;;;;;;;;5047496;28;20408;-66
2021/04/28 00:18:04;;;;;;;31.95;18.13;;;;;;;;;;5047621;28;20052;-66
2021/04/28 00:20:29;;;;;;;33.92;18.63;;;;;;;;;;5047386;28;20023;-66
2021/04/28 00:22:55;;;;;;;33.80;19.10;;;;;;;;;;5047721;28;20052;-65
2021/04/28 00:25:21;;;;;;;34.40;18.20;;;;;;;;;;5047873;28;20040;-66
2021/04/28 00:27:47;;;;;;;35.40;18.85;;;;;;;;;;5048273;28;20385;-66
2021/04/28 00:30:13;;;;;;;35.10;18.45;;;;;;;;;;5051152;28;20037;-65
2021/04/28 00:32:38;;;;;;;33.80;18.92;;;;;;;;;;5051667;28;20036;-66
2021/04/28 00:35:05;;;;;;;34.30;19.85;;;;;;;;;;5051946;28;20046;-65
2021/04/28 00:37:30;;;;;;;32.15;18.95;;;;;;;;;;5051382;28;20044;-66
2021/04/28 00:39:55;;;;;;;38.70;19.40;;;;;;;;;;5050576;28;20056;-66
2021/04/28 00:42:21;;;;;;;37.38;18.73;;;;;;;;;;5051158;28;20024;-66
2021/04/28 00:44:46;;;;;;;30.05;19.00;;;;;;;;;;5051131;28;20112;-66
2021/04/28 00:47:12;;;;;;;37.10;18.83;;;;;;;;;;5034982;28;20104;-66
2021/04/28 00:49:37;;;;;;;29.00;18.23;;;;;;;;;;5051443;28;20810;-66
2021/04/28 00:52:04;;;;;;;39.13;19.05;;;;;;;;;;5050735;28;20424;-66
2021/04/28 00:54:30;;;;;;;37.78;19.95;;;;;;;;;;5051385;28;20040;-66
2021/04/28 00:56:57;;;;;;;31.75;18.48;;;;;;;;;;5050896;28;20075;-66
2021/04/28 00:59:23;;;;;;;33.65;19.15;;;;;;;;;;5050921;28;20481;-65
2021/04/28 01:01:48;;;;;;;34.05;19.80;;;;;;;;;;5050713;28;20085;-66
2021/04/28 01:04:13;;;;;;;39.22;20.77;;;;;;;;;;5050755;28;20017;-66
2021/04/28 01:06:39;;;;;;;42.50;22.95;;;;;;;;;;5051361;28;20371;-65
2021/04/28 01:09:05;;;;;;;41.25;21.30;;;;;;;;;;5050927;28;20037;-65
2021/04/28 01:11:31;;;;;;;40.42;21.60;;;;;;;;;;5050986;28;20059;-66
2021/04/28 01:13:56;;;;;;;38.20;22.92;;;;;;;;;;5050494;28;20029;-66
2021/04/28 01:16:22;;;;;;;37.67;21.30;;;;;;;;;;5050176;28;20419;-66
2021/04/28 01:18:47;;;;;;;45.63;21.85;;;;;;;;;;5050739;28;20048;-66
2021/04/28 01:21:13;;;;;;;37.30;22.08;;;;;;;;;;5050822;28;20040;-66
2021/04/28 01:23:39;;;;;;;45.90;22.55;;;;;;;;;;5050210;28;20465;-66
2021/04/28 01:26:05;;;;;;;37.97;21.45;;;;;;;;;;5050658;28;20044;-65
2021/04/28 01:28:30;;;;;;;38.45;21.52;;;;;;;;;;5049834;28;20029;-63
2021/04/28 01:30:59;;;;;;;40.85;22.45;;;;;;;;;;5050563;28;20036;-63
2021/04/28 01:33:30;;;;;;;43.72;23.40;;;;;;;;;;5050269;28;20028;-63
2021/04/28 01:35:57;;;;;;;45.85;23.50;;;;;;;;;;5050426;28;20029;-63
2021/04/28 01:38:23;;;;;;;42.20;23.70;;;;;;;;;;5050400;28;20056;-63
2021/04/28 01:40:49;;;;;;;43.65;23.35;;;;;;;;;;5049565;28;20049;-63
2021/04/28 01:43:15;;;;;;;50.85;24.70;;;;;;;;;;5050123;28;20605;-63
2021/04/28 01:45:40;;;;;;;49.92;22.92;;;;;;;;;;5050036;28;20044;-63
2021/04/28 01:48:06;;;;;;;44.33;23.08;;;;;;;;;;5050050;28;20025;-63
2021/04/28 01:50:33;;;;;;;40.90;23.35;;;;;;;;;;5049995;28;20429;-65
2021/04/28 01:52:58;;;;;;;42.97;22.70;;;;;;;;;;5050281;28;20024;-66
2021/04/28 01:55:24;;;;;;;40.72;23.08;;;;;;;;;;5049758;28;20029;-66
2021/04/28 01:57:50;;;;;;;43.80;23.17;;;;;;;;;;5050057;28;20132;-65
2021/04/28 02:00:17;;;;;;;41.95;23.38;;;;;;;;;;5049514;28;20841;-66
2021/04/28 02:02:42;;;;;;;42.17;22.10;;;;;;;;;;5049651;28;20032;-66
2021/04/28 02:05:09;;;;;;;43.17;22.55;;;;;;;;;;5049940;28;20025;-66
2021/04/28 02:07:34;;;;;;;35.40;20.23;;;;;;;;;;5049425;28;20033;-65
2021/04/28 02:10:01;;;;;;;37.53;20.45;;;;;;;;;;5049782;28;20032;-65
2021/04/28 02:12:26;;;;;;;32.72;18.83;;;;;;;;;;5049848;28;20029;-65
2021/04/28 02:14:52;;;;;;;41.95;21.70;;;;;;;;;;5049866;28;20033;-66
2021/04/28 02:17:19;;;;;;;35.95;19.25;;;;;;;;;;5049124;28;20025;-66
2021/04/28 02:19:44;;;;;;;36.22;20.05;;;;;;;;;;5049438;28;20467;-66
2021/04/28 02:22:10;;;;;;;40.05;21.02;;;;;;;;;;5049506;28;20033;-66
2021/04/28 02:24:35;;;;;;;32.97;19.13;;;;;;;;;;5049705;28;20057;-66
2021/04/28 02:27:01;;;;;;;29.50;17.35;;;;;;;;;;5063583;28;20039;-65
2021/04/28 02:29:26;;;;;;;35.67;20.65;;;;;;;;;;5049457;28;20051;-65
2021/04/28 02:31:51;;;;;;;38.13;20.27;;;;;;;;;;5049492;28;20021;-65
2021/04/28 02:34:17;;;;;;;34.25;19.33;;;;;;;;;;5049243;28;20115;-66
2021/04/28 02:36:44;;;;;;;37.00;18.25;;;;;;;;;;5049299;28;20040;-65
2021/04/28 02:39:24;;;;;;;35.20;19.08;;;;;;;;;;5048665;28;20094;-66
2021/04/28 02:41:50;;;;;;;37.55;19.52;;;;;;;;;;5049296;28;20067;-66
2021/04/28 02:44:18;;;;;;;34.90;18.88;;;;;;;;;;5049183;28;20037;-65
2021/04/28 02:46:44;;;;;;;31.17;17.33;;;;;;;;;;5049203;28;20036;-66
2021/04/28 02:49:10;;;;;;;27.23;13.95;;;;;;;;;;5048535;28;20035;-66
2021/04/28 02:51:37;;;;;;;32.70;18.58;;;;;;;;;;5049073;28;20074;-65
2021/04/28 02:54:04;;;;;;;36.17;18.95;;;;;;;;;;5049077;28;20025;-66
2021/04/28 02:56:30;;;;;;;30.90;17.08;;;;;;;;;;5048676;28;20397;-65
2021/04/28 02:58:56;;;;;;;27.45;16.35;;;;;;;;;;5048414;28;20051;-65
2021/04/28 03:01:22;;;;;;;31.13;17.20;;;;;;;;;;5048898;28;20025;-66
2021/04/28 03:03:47;;;;;;;28.13;14.63;;;;;;;;;;5049003;28;20424;-65
2021/04/28 03:06:13;;;;;;;32.75;18.00;;;;;;;;;;5048735;28;20037;-66
2021/04/28 03:08:39;;;;;;;32.33;17.27;;;;;;;;;;5048795;28;20165;-66
2021/04/28 03:11:04;;;;;;;30.75;17.83;;;;;;;;;;5048187;28;20037;-65
2021/04/28 03:13:29;;;;;;;31.02;14.88;;;;;;;;;;5048789;28;20036;-66
2021/04/28 03:15:55;;;;;;;29.08;17.23;;;;;;;;;;5048349;28;20116;-66
2021/04/28 03:18:21;;;;;;;33.85;18.25;;;;;;;;;;5048104;28;20041;-63
2021/04/28 03:20:48;;;;;;;33.40;18.15;;;;;;;;;;5048093;28;20061;-63
2021/04/28 03:23:14;;;;;;;31.58;17.95;;;;;;;;;;5032455;28;20036;-63
2021/04/28 03:25:42;;;;;;;33.63;16.35;;;;;;;;;;5048545;28;20056;-63
2021/04/28 03:28:07;;;;;;;29.45;16.75;;;;;;;;;;5048373;28;20040;-66
2021/04/28 03:30:33;;;;;;;33.42;19.27;;;;;;;;;;5048303;28;20021;-65
2021/04/28 03:32:59;;;;;;;31.23;17.65;;;;;;;;;;5048044;28;20048;-65
2021/04/28 03:35:24;;;;;;;25.83;14.35;;;;;;;;;;5048423;28;20086;-65
2021/04/28 03:37:50;;;;;;;36.90;17.63;;;;;;;;;;5047879;28;20119;-66
2021/04/28 03:40:15;;;;;;;29.05;17.25;;;;;;;;;;5047740;28;20049;-66
2021/04/28 03:42:40;;;;;;;30.40;17.45;;;;;;;;;;5047718;28;20072;-65
2021/04/28 03:45:06;;;;;;;30.00;17.13;;;;;;;;;;5048112;28;20016;-66
2021/04/28 03:47:31;;;;;;;31.48;17.42;;;;;;;;;;5048429;28;20657;-65
2021/04/28 03:49:57;;;;;;;30.58;16.70;;;;;;;;;;5048023;28;20051;-66
2021/04/28 03:52:22;;;;;;;27.25;15.60;;;;;;;;;;5047539;28;20028;-65
2021/04/28 03:54:48;;;;;;;28.25;16.08;;;;;;;;;;5048145;28;20033;-66
2021/04/28 03:57:13;;;;;;;32.55;17.23;;;;;;;;;;5047965;28;20067;-66
2021/04/28 03:59:38;;;;;;;24.95;13.13;;;;;;;;;;5048273;28;20404;-66
2021/04/28 04:02:04;;;;;;;21.92;12.65;;;;;;;;;;5048292;28;20080;-65
2021/04/28 04:04:29;;;;;;;30.90;16.50;;;;;;;;;;5053097;28;20032;-66
2021/04/28 04:06:54;;;;;;;35.60;17.67;;;;;;;;;;5053129;28;20048;-66
2021/04/28 04:09:20;;;;;;;30.02;17.23;;;;;;;;;;5054369;28;20037;-65
2021/04/28 04:11:45;;;;;;;25.98;16.00;;;;;;;;;;5054432;28;20044;-65
2021/04/28 04:14:11;;;;;;;26.88;16.58;;;;;;;;;;5053778;28;20101;-65
2021/04/28 04:16:36;;;;;;;31.80;18.27;;;;;;;;;;5054471;28;20033;-65
2021/04/28 04:19:01;;;;;;;32.45;18.00;;;;;;;;;;5054469;28;20041;-65
2021/04/28 04:21:27;;;;;;;33.30;18.15;;;;;;;;;;5053981;28;20021;-65
2021/04/28 04:23:54;;;;;;;36.33;18.42;;;;;;;;;;5054136;28;20029;-65
2021/04/28 04:26:19;;;;;;;42.28;20.45;;;;;;;;;;5054039;28;20147;-65
2021/04/28 04:28:44;;;;;;;35.65;21.40;;;;;;;;;;5054215;28;20100;-65
2021/04/28 04:31:10;;;;;;;41.83;22.10;;;;;;;;;;5054263;28;20025;-65
2021/04/28 04:33:35;;;;;;;38.50;21.13;;;;;;;;;;5054490;28;20110;-65
2021/04/28 04:36:00;;;;;;;36.67;21.15;;;;;;;;;;5053732;28;20016;-65
2021/04/28 04:38:25;;;;;;;38.17;22.02;;;;;;;;;;5053951;28;20178;-65
2021/04/28 04:40:51;;;;;;;34.53;19.15;;;;;;;;;;5053960;28;20056;-64
2021/04/28 04:43:16;;;;;;;39.85;22.23;;;;;;;;;;5054421;28;20748;-66
2021/04/28 04:45:41;;;;;;;38.25;20.83;;;;;;;;;;5053691;28;20029;-65
2021/04/28 04:48:08;;;;;;;44.22;22.63;;;;;;;;;;5054018;28;20053;-65
2021/04/28 04:50:34;;;;;;;49.47;24.80;;;;;;;;;;5054205;28;20051;-65
2021/04/28 04:53:00;;;;;;;55.47;25.02;;;;;;;;;;5054206;28;20086;-65
2021/04/28 04:55:25;;;;;;;47.67;23.83;;;;;;;;;;5054492;28;20036;-65
2021/04/28 04:57:51;;;;;;;49.67;24.88;;;;;;;;;;5053930;28;20033;-65
2021/04/28 05:00:17;;;;;;;61.35;27.25;;;;;;;;;;5053960;28;20044;-65
2021/04/28 05:02:42;;;;;;;49.25;24.05;;;;;;;;;;5053875;28;20067;-65
2021/04/28 05:05:08;;;;;;;49.38;23.80;;;;;;;;;;5054220;28;20016;-65
2021/04/28 05:07:33;;;;;;;54.15;24.33;;;;;;;;;;5052131;28;20116;-66
2021/04/28 05:09:58;;;;;;;46.72;25.08;;;;;;;;;;5053990;28;20043;-65
2021/04/28 05:12:24;;;;;;;61.88;27.67;;;;;;;;;;5053890;28;20025;-65
2021/04/28 05:14:49;;;;;;;53.22;24.30;;;;;;;;;;5051108;28;20514;-65
2021/04/28 05:17:15;;;;;;;86.43;29.75;;;;;;;;;;5050679;28;20033;-66
2021/04/28 05:19:40;;;;;;;60.35;26.73;;;;;;;;;;5050596;28;20049;-65
2021/04/28 05:22:05;;;;;;;74.38;27.38;;;;;;;;;;5050672;28;20042;-65
2021/04/28 05:24:30;;;;;;;49.50;24.83;;;;;;;;;;5050791;28;20476;-66
2021/04/28 05:26:56;;;;;;;60.63;25.98;;;;;;;;;;5050665;28;20124;-66
2021/04/28 05:29:21;;;;;;;71.45;27.00;;;;;;;;;;5048689;28;20036;-66
2021/04/28 05:31:46;;;;;;;53.33;22.85;;;;;;;;;;5050563;28;20040;-65
2021/04/28 05:34:12;;;;;;;53.88;23.65;;;;;;;;;;5050374;28;20044;-65
2021/04/28 05:36:37;;;;;;;45.20;21.95;;;;;;;;;;5050518;28;20033;-65
2021/04/28 05:39:03;;;;;;;56.67;23.63;;;;;;;;;;5049672;28;20048;-65
2021/04/28 05:41:28;;;;;;;52.05;22.10;;;;;;;;;;5050343;28;20392;-66
2021/04/28 05:43:54;;;;;;;62.58;24.15;;;;;;;;;;5050606;28;20037;-66
2021/04/28 05:46:19;;;;;;;52.65;21.60;;;;;;;;;;5050216;28;20496;-66
2021/04/28 05:48:44;;;;;;;51.95;22.42;;;;;;;;;;5050356;28;20017;-66
2021/04/28 05:51:10;;;;;;;46.35;20.98;;;;;;;;;;5049792;28;20032;-66
2021/04/28 05:53:35;;;;;;;49.83;20.25;;;;;;;;;;5050312;28;20048;-66
2021/04/28 05:56:01;;;;;;;51.15;20.83;;;;;;;;;;5049852;28;20025;-66
2021/04/28 05:58:26;;;;;;;44.70;19.70;;;;;;;;;;5049959;28;20127;-65
2021/04/28 06:00:52;;;;;;;53.83;22.13;;;;;;;;;;5049649;28;20116;-65
2021/04/28 06:03:17;;;;;;;43.53;18.45;;;;;;;;;;5050042;28;20520;-66
2021/04/28 06:05:42;;;;;;;45.30;19.08;;;;;;;;;;5049794;28;20060;-66
2021/04/28 06:08:08;;;;;;;35.45;16.15;;;;;;;;;;5049996;28;20041;-66
2021/04/28 06:10:33;;;;;;;27.02;12.48;;;;;;;;;;5049403;28;20020;-66
2021/04/28 06:12:58;;;;;;;36.88;17.25;;;;;;;;;;5049350;28;20029;-66
2021/04/28 06:15:24;;;;;;;45.03;18.63;;;;;;;;;;5049883;28;20032;-66
2021/04/28 06:17:49;;;;;;;42.83;15.65;;;;;;;;;;5049725;28;20036;-66
2021/04/28 06:20:16;;;;;;;37.63;17.25;;;;;;;;;;5049395;28;20062;-66
2021/04/28 06:22:42;;;;;;;38.67;17.00;;;;;;;;;;5048776;28;20033;-66
2021/04/28 06:25:08;;;;;;;40.17;17.23;;;;;;;;;;5049135;28;20017;-66
2021/04/28 06:27:34;;;;;;;45.72;17.25;;;;;;;;;;5049395;28;20028;-66
2021/04/28 06:29:59;;;;;;;34.90;16.98;;;;;;;;;;5049363;28;20045;-66
2021/04/28 06:32:24;;;;;;;34.30;15.82;;;;;;;;;;5048802;28;20082;-66
2021/04/28 06:34:50;;;;;;;32.10;16.50;;;;;;;;;;5049470;28;20114;-66
2021/04/28 06:37:15;;;;;;;39.90;17.63;;;;;;;;;;5049275;28;20093;-66
2021/04/28 06:39:40;;;;;;;44.22;18.63;;;;;;;;;;5049065;28;20052;-66
2021/04/28 06:42:06;;;;;;;37.92;18.20;;;;;;;;;;5048867;28;20511;-66
2021/04/28 06:44:31;;;;;;;48.92;19.58;;;;;;;;;;5048866;28;20047;-66
2021/04/28 06:46:56;;;;;;;33.17;16.02;;;;;;;;;;5049162;28;20117;-66
2021/04/28 06:49:22;;;;;;;31.05;16.58;;;;;;;;;;5049107;28;20036;-66
2021/04/28 06:51:47;;;;;;;40.17;18.48;;;;;;;;;;5049181;28;20037;-66
2021/04/28 06:54:12;;;;;;;36.45;17.65;;;;;;;;;;5048532;28;20013;-66
2021/04/28 06:56:41;;;;;;;35.25;18.15;;;;;;;;;;5049181;28;20061;-65
2021/04/28 06:59:08;;;;;;;35.40;16.80;;;;;;;;;;5048894;28;20106;-66
2021/04/28 07:01:33;;;;;;;29.60;14.15;;;;;;;;;;5048819;28;20013;-66
2021/04/28 07:03:59;;;;;;;34.08;18.77;;;;;;;;;;5048595;28;20373;-66
2021/04/28 07:06:24;;;;;;;34.53;18.52;;;;;;;;;;5048706;28;20041;-66
2021/04/28 07:08:49;;;;;;;28.85;15.95;;;;;;;;;;5048780;28;20024;-66
2021/04/28 07:11:14;;;;;;;29.58;15.82;;;;;;;;;;5048718;28;20536;-66
2021/04/28 07:13:40;;;;;;;32.40;16.67;;;;;;;;;;5048528;28;20079;-66
2021/04/28 07:16:05;;;;;;;35.75;17.40;;;;;;;;;;5048123;28;20499;-66
2021/04/28 07:18:30;;;;;;;30.45;15.73;;;;;;;;;;5048366;28;20665;-66
2021/04/28 07:20:56;;;;;;;34.83;16.95;;;;;;;;;;5048667;28;20044;-67
2021/04/28 07:23:22;;;;;;;25.10;14.52;;;;;;;;;;5048278;28;20012;-66
2021/04/28 07:25:47;;;;;;;28.02;16.45;;;;;;;;;;5048174;28;20818;-66
2021/04/28 07:28:12;;;;;;;26.13;14.63;;;;;;;;;;5048269;28;20489;-66
2021/04/28 07:30:37;;;;;;;26.13;15.07;;;;;;;;;;5048511;28;20013;-66
2021/04/28 07:33:03;;;;;;;21.08;13.35;;;;;;;;;;5048271;28;20037;-66
2021/04/28 07:35:29;;;;;;;22.77;13.10;;;;;;;;;;5048493;28;20153;-66
2021/04/28 07:37:54;;;;;;;25.27;14.07;;;;;;;;;;5046975;28;20059;-66
2021/04/28 07:40:21;;;;;;;27.63;15.43;;;;;;;;;;5043214;28;20057;-66
2021/04/28 07:42:47;;;;;;;23.77;13.93;;;;;;;;;;5045494;28;20040;-67
2021/04/28 07:45:13;;;;;;;19.48;12.52;;;;;;;;;;5046345;28;20021;-66
2021/04/28 07:47:38;;;;;;;22.60;14.30;;;;;;;;;;5044885;28;20060;-66
2021/04/28 07:50:04;;;;;;;23.58;14.55;;;;;;;;;;5045496;28;20041;-66
2021/04/28 07:52:29;;;;;;;24.65;14.13;;;;;;;;;;5044980;28;20091;-66
2021/04/28 07:54:54;;;;;;;20.50;13.90;;;;;;;;;;5045102;28;20029;-66
2021/04/28 07:57:20;;;;;;;19.73;13.05;;;;;;;;;;5043564;28;20087;-66
2021/04/28 07:59:45;;;;;;;20.45;13.77;;;;;;;;;;5043841;28;20466;-66
2021/04/28 08:02:11;;;;;;;22.73;13.15;;;;;;;;;;5045064;28;20434;-66
2021/04/28 08:04:38;;;;;;;19.15;13.07;;;;;;;;;;5046749;28;20033;-66
2021/04/28 08:07:04;;;;;;;20.20;14.20;;;;;;;;;;5047377;28;20021;-66
2021/04/28 08:09:30;;;;;;;21.38;13.52;;;;;;;;;;5043857;28;20036;-66
2021/04/28 08:11:55;;;;;;;21.08;12.77;;;;;;;;;;5044606;28;20064;-66
2021/04/28 08:14:20;;;;;;;20.15;12.52;;;;;;;;;;5036958;28;21360;-66
2021/04/28 08:16:45;;;;;;;18.88;13.15;;;;;;;;;;5043847;28;20082;-66
2021/04/28 08:19:11;;;;;;;21.27;12.18;;;;;;;;;;5044725;28;20151;-66
2021/04/28 08:21:36;;;;;;;19.63;11.65;;;;;;;;;;5047018;28;20072;-66
2021/04/28 08:24:01;;;;;;;17.17;11.65;;;;;;;;;;5047288;28;20140;-66
2021/04/28 08:26:27;;;;;;;17.20;10.63;;;;;;;;;;5047645;28;20060;-66
2021/04/28 08:28:52;;;;;;;18.75;10.85;;;;;;;;;;5047198;28;20046;-66
2021/04/28 08:31:18;;;;;;;17.00;11.00;;;;;;;;;;5047314;28;20025;-66
2021/04/28 08:33:44;;;;;;;15.75;10.65;;;;;;;;;;5047539;28;20516;-66
2021/04/28 08:36:10;;;;;;;16.65;10.35;;;;;;;;;;5046600;28;20025;-66
2021/04/28 08:38:36;;;;;;;15.93;10.65;;;;;;;;;;5047531;28;20072;-67
2021/04/28 08:41:02;;;;;;;14.02;10.43;;;;;;;;;;5047218;28;20864;-66
2021/04/28 08:43:28;;;;;;;15.60;9.57;;;;;;;;;;5047358;28;20120;-66
2021/04/28 08:45:53;;;;;;;16.60;10.18;;;;;;;;;;5040145;28;20107;-66
2021/04/28 08:48:19;;;;;;;16.67;11.30;;;;;;;;;;5043015;28;20049;-66
2021/04/28 08:50:45;;;;;;;15.30;10.43;;;;;;;;;;5048305;28;20056;-66
2021/04/28 08:53:14;;;;;;;14.95;10.82;;;;;;;;;;5048442;28;20021;-66
2021/04/28 08:55:40;;;;;;;16.60;11.52;;;;;;;;;;5049694;28;20494;-66
2021/04/28 08:58:06;;;;;;;15.77;10.65;;;;;;;;;;5045304;28;20029;-66
2021/04/28 09:00:31;;;;;;;16.42;11.02;;;;;;;;;;5047790;28;20412;-65
2021/04/28 09:03:00;;;;;;;16.88;11.45;;;;;;;;;;5048221;28;20125;-66
2021/04/28 09:05:25;;;;;;;17.20;11.30;;;;;;;;;;5048468;28;20497;-67
2021/04/28 09:07:50;;;;;;;14.95;10.93;;;;;;;;;;5047370;28;20126;-66
2021/04/28 09:10:17;;;;;;;18.55;11.25;;;;;;;;;;5048317;28;20617;-66
2021/04/28 09:12:55;;;;;;;13.82;10.07;;;;;;;;;;5048154;28;20055;-66
2021/04/28 09:15:34;;;;;;;13.23;9.85;;;;;;;;;;5048120;28;20131;-67
2021/04/28 09:18:00;;;;;;;14.77;9.95;;;;;;;;;;5047549;28;20508;-66
2021/04/28 09:20:37;;;;;;;15.38;10.98;;;;;;;;;;5047494;28;20025;-66
2021/04/28 09:23:03;;;;;;;14.68;10.73;;;;;;;;;;5046583;28;20044;-66
2021/04/28 09:25:42;;;;;;;18.83;11.70;;;;;;;;;;5047350;28;20496;-66
2021/04/28 09:28:24;;;;;;;18.25;11.73;;;;;;;;;;5048744;28;20033;-66
2021/04/28 09:30:50;;;;;;;17.00;11.57;;;;;;;;;;5045571;28;20432;-66
2021/04/28 09:33:16;;;;;;;17.17;11.80;;;;;;;;;;5048280;28;20488;-66
2021/04/28 09:35:41;;;;;;;17.60;11.63;;;;;;;;;;5048706;28;20035;-66
2021/04/28 09:38:06;;;;;;;19.38;12.18;;;;;;;;;;5047064;28;20075;-66
2021/04/28 09:40:43;;;;;;;24.23;14.15;;;;;;;;;;5044199;28;20517;-67
2021/04/28 09:43:08;;;;;;;21.77;13.30;;;;;;;;;;5046338;28;20067;-66
2021/04/28 09:45:37;;;;;;;18.67;13.15;;;;;;;;;;5046655;28;20025;-67
2021/04/28 09:48:04;;;;;;;21.00;13.75;;;;;;;;;;5047049;28;20032;-66
2021/04/28 09:50:29;;;;;;;22.83;15.55;;;;;;;;;;5047489;28;20112;-66
2021/04/28 09:52:55;;;;;;;34.60;16.27;;;;;;;;;;5046397;28;20123;-66
2021/04/28 09:55:20;;;;;;;22.25;14.82;;;;;;;;;;5040996;28;20021;-66
2021/04/28 09:57:46;;;;;;;28.02;15.52;;;;;;;;;;5046462;28;20036;-66
2021/04/28 10:00:19;;;;;;;26.77;15.40;;;;;;;;;;5046356;28;20132;-66
2021/04/28 10:02:50;;;;;;;25.35;16.17;;;;;;;;;;5049530;28;20017;-66
2021/04/28 10:05:24;;;;;;;30.38;17.50;;;;;;;;;;5051223;28;20029;-66
2021/04/28 10:07:50;;;;;;;27.25;18.25;;;;;;;;;;5051543;28;20082;-66
2021/04/28 10:10:16;;;;;;;28.45;17.48;;;;;;;;;;5051751;28;20075;-66
2021/04/28 10:12:42;;;;;;;27.85;16.73;;;;;;;;;;5050600;28;20037;-66
2021/04/28 10:15:07;;;;;;;26.33;15.90;;;;;;;;;;5051643;28;20432;-66
2021/04/28 10:17:35;;;;;;;29.35;17.25;;;;;;;;;;5051960;28;20469;-66
2021/04/28 10:20:00;;;;;;;28.48;16.73;;;;;;;;;;5051549;28;20033;-66
2021/04/28 10:22:26;;;;;;;27.30;16.55;;;;;;;;;;5050590;28;20454;-66
2021/04/28 10:24:52;;;;;;;30.27;16.10;;;;;;;;;;5050803;28;20033;-66
2021/04/28 10:27:18;;;;;;;28.13;16.48;;;;;;;;;;5051440;28;20465;-66
2021/04/28 10:29:47;;;;;;;31.23;16.55;;;;;;;;;;5051718;28;20021;-66
2021/04/28 10:32:14;;;;;;;25.55;14.55;;;;;;;;;;5051452;28;20029;-66
2021/04/28 10:34:44;;;;;;;27.33;16.85;;;;;;;;;;5051057;28;20052;-66
2021/04/28 10:37:10;;;;;;;27.75;15.90;;;;;;;;;;5051222;28;20021;-66
2021/04/28 10:39:36;;;;;;;32.17;17.17;;;;;;;;;;5050642;28;20060;-66
2021/04/28 10:42:02;;;;;;;24.25;16.35;;;;;;;;;;5050147;28;20104;-66
2021/04/28 10:44:30;;;;;;;28.17;16.70;;;;;;;;;;5050226;28;20127;-66
2021/04/28 10:47:13;;;;;;;28.25;17.58;;;;;;;;;;5035558;28;20033;-67
2021/04/28 10:49:57;;;;;;;25.08;16.20;;;;;;;;;;5043843;28;20040;-66
2021/04/28 10:52:27;;;;;;;32.75;19.25;;;;;;;;;;5046760;28;20169;-66
2021/04/28 10:54:55;;;;;;;32.38;21.27;;;;;;;;;;5046358;28;20047;-66
2021/04/28 10:57:37;;;;;;;30.95;19.17;;;;;;;;;;5046214;28;20036;-65
2021/04/28 11:00:22;;;;;;;40.00;21.73;;;;;;;;;;5046130;28;20147;-65
2021/04/28 11:02:48;;;;;;;37.42;22.95;;;;;;;;;;5046272;28;20041;-66
2021/04/28 11:05:27;;;;;;;35.80;22.33;;;;;;;;;;5045549;28;20098;-65
2021/04/28 11:07:53;;;;;;;43.63;25.30;;;;;;;;;;5046112;28;20037;-66
2021/04/28 11:10:27;;;;;;;48.17;26.67;;;;;;;;;;5046615;28;20166;-66
2021/04/28 11:13:11;;;;;;;46.60;24.52;;;;;;;;;;5045028;28;20037;-66
2021/04/28 11:15:53;;;;;;;48.17;24.75;;;;;;;;;;5043153;28;20029;-66
2021/04/28 11:18:35;;;;;;;38.42;24.42;;;;;;;;;;5030983;28;20044;-66
2021/04/28 11:21:09;;;;;;;40.67;24.73;;;;;;;;;;5046531;28;20048;-66
2021/04/28 11:23:35;;;;;;;43.03;24.27;;;;;;;;;;5046152;28;20127;-66
2021/04/28 11:26:19;;;;;;;41.70;25.70;;;;;;;;;;5045623;28;20328;-66
2021/04/28 11:28:48;;;;;;;49.35;26.38;;;;;;;;;;5045620;28;20501;-66
2021/04/28 11:31:21;;;;;;;48.95;26.40;;;;;;;;;;5046322;28;20040;-66
2021/04/28 11:33:46;;;;;;;42.67;25.48;;;;;;;;;;5045734;28;20392;-66
2021/04/28 11:36:14;;;;;;;44.78;26.45;;;;;;;;;;5045587;28;20017;-66
2021/04/28 11:38:43;;;;;;;52.50;27.20;;;;;;;;;;5046246;28;20053;-66
2021/04/28 11:41:13;;;;;;;38.95;25.45;;;;;;;;;;5046035;28;20053;-66
2021/04/28 11:43:39;;;;;;;52.63;26.92;;;;;;;;;;5045851;28;20478;-66
2021/04/28 11:46:04;;;;;;;38.05;25.90;;;;;;;;;;5044391;28;20032;-66
2021/04/28 11:48:30;;;;;;;47.65;26.55;;;;;;;;;;5044783;28;20147;-66
2021/04/28 11:51:00;;;;;;;39.22;23.23;;;;;;;;;;5045677;28;20090;-66
2021/04/28 11:53:26;;;;;;;39.22;24.77;;;;;;;;;;5044043;28;20762;-66
2021/04/28 11:55:51;;;;;;;48.90;25.77;;;;;;;;;;5044708;28;20505;-66
2021/04/28 11:58:21;;;;;;;38.33;23.98;;;;;;;;;;5045585;28;20073;-66
2021/04/28 12:00:46;;;;;;;50.05;26.95;;;;;;;;;;5046006;28;20032;-66
2021/04/28 12:03:11;;;;;;;47.47;24.95;;;;;;;;;;5046140;28;20491;-67
2021/04/28 12:05:37;;;;;;;43.78;25.58;;;;;;;;;;5044873;28;20051;-67
2021/04/28 12:08:03;;;;;;;44.22;26.48;;;;;;;;;;5045611;28;20053;-66
2021/04/28 12:10:28;;;;;;;45.15;26.85;;;;;;;;;;5045047;28;20060;-66
2021/04/28 12:12:53;;;;;;;43.17;26.25;;;;;;;;;;5045041;28;20057;-67
2021/04/28 12:15:19;;;;;;;40.20;25.75;;;;;;;;;;5045598;28;20354;-66
2021/04/28 12:17:46;;;;;;;47.38;27.25;;;;;;;;;;5044955;28;20431;-66
2021/04/28 12:20:15;;;;;;;53.85;28.02;;;;;;;;;;5045662;28;20024;-66
2021/04/28 12:22:41;;;;;;;67.22;33.05;;;;;;;;;;5045401;28;20126;-67
2021/04/28 12:25:08;;;;;;;51.90;25.88;;;;;;;;;;5048257;28;20480;-66
2021/04/28 12:27:34;;;;;;;36.70;22.25;;;;;;;;;;5048762;28;20039;-66
2021/04/28 12:30:12;;;;;;;42.83;25.08;;;;;;;;;;5049562;28;20025;-66
2021/04/28 12:32:39;;;;;;;36.30;24.15;;;;;;;;;;5048749;28;20156;-66
2021/04/28 12:35:05;;;;;;;33.65;22.33;;;;;;;;;;5049254;28;20027;-67
2021/04/28 12:37:31;;;;;;;47.13;24.48;;;;;;;;;;5048511;28;20054;-67
2021/04/28 12:39:57;;;;;;;45.10;25.77;;;;;;;;;;5049708;28;20492;-67
2021/04/28 12:42:29;;;;;;;44.03;25.58;;;;;;;;;;5046696;28;20107;-67
2021/04/28 12:44:55;;;;;;;49.45;25.27;;;;;;;;;;5045240;28;20054;-67
2021/04/28 12:47:25;;;;;;;53.58;27.92;;;;;;;;;;5045708;28;20039;-67
2021/04/28 12:49:54;;;;;;;48.70;26.67;;;;;;;;;;5046183;28;20465;-67
2021/04/28 12:52:19;;;;;;;48.65;26.67;;;;;;;;;;5046296;28;20067;-66
2021/04/28 12:54:45;;;;;;;39.72;23.77;;;;;;;;;;5046199;28;20064;-67
2021/04/28 12:57:22;;;;;;;42.08;25.58;;;;;;;;;;5046872;28;20056;-67
2021/04/28 13:00:03;;;;;;;45.08;25.75;;;;;;;;;;5046242;28;20508;-67
2021/04/28 13:02:28;;;;;;;47.70;27.02;;;;;;;;;;5046228;28;20477;-67
2021/04/28 13:04:54;;;;;;;48.70;27.35;;;;;;;;;;5046465;28;20114;-67
2021/04/28 13:07:25;;;;;;;36.83;24.65;;;;;;;;;;5046449;28;20024;-67
2021/04/28 13:09:50;;;;;;;46.13;25.70;;;;;;;;;;5046206;28;20025;-67
2021/04/28 13:12:35;;;;;;;45.08;26.08;;;;;;;;;;5046393;28;20415;-66
2021/04/28 13:15:00;;;;;;;54.38;29.63;;;;;;;;;;5045656;28;20675;-66
2021/04/28 13:17:26;;;;;;;33.70;22.70;;;;;;;;;;5045813;28;20040;-66
2021/04/28 13:19:51;;;;;;;45.35;25.92;;;;;;;;;;5045367;28;20091;-66
2021/04/28 13:22:19;;;;;;;48.97;26.70;;;;;;;;;;5047258;28;20105;-67
2021/04/28 13:24:48;;;;;;;44.92;25.05;;;;;;;;;;5047004;28;20043;-66
2021/04/28 13:27:27;;;;;;;55.88;29.63;;;;;;;;;;5045930;28;20469;-67
2021/04/28 13:29:56;;;;;;;59.30;28.85;;;;;;;;;;5046180;28;20029;-67
2021/04/28 13:32:34;;;;;;;59.00;29.33;;;;;;;;;;5046672;28;20061;-68
2021/04/28 13:35:13;;;;;;;78.82;32.50;;;;;;;;;;5045535;28;20033;-67
2021/04/28 13:37:39;;;;;;;68.72;31.63;;;;;;;;;;5047228;28;20043;-67
2021/04/28 13:40:20;;;;;;;56.17;30.50;;;;;;;;;;5047624;28;20417;-67
2021/04/28 13:42:46;;;;;;;69.25;33.70;;;;;;;;;;5043255;28;20037;-67
2021/04/28 13:45:12;;;;;;;89.68;35.85;;;;;;;;;;5047942;28;20040;-67
2021/04/28 13:47:37;;;;;;;77.55;31.80;;;;;;;;;;5048583;28;20558;-68
2021/04/28 13:50:03;;;;;;;94.30;36.08;;;;;;;;;;5047600;28;20017;-67
2021/04/28 13:52:28;;;;;;;90.32;35.45;;;;;;;;;;5047806;28;20485;-67
2021/04/28 13:54:53;;;;;;;84.25;33.60;;;;;;;;;;5047704;28;20033;-67
2021/04/28 13:57:18;;;;;;;89.22;32.95;;;;;;;;;;5047427;28;20025;-67
2021/04/28 13:59:44;;;;;;;123.03;36.78;;;;;;;;;;5047725;28;20465;-67
2021/04/28 14:02:09;;;;;;;53.63;27.02;;;;;;;;;;5048417;28;20472;-67
2021/04/28 14:04:34;;;;;;;66.28;30.20;;;;;;;;;;5045531;28;20020;-67
2021/04/28 14:07:01;;;;;;;75.22;31.52;;;;;;;;;;5046920;28;20025;-67
2021/04/28 14:09:26;;;;;;;63.55;30.15;;;;;;;;;;5047041;28;20059;-67
2021/04/28 14:11:51;;;;;;;50.70;24.38;;;;;;;;;;5047727;28;20380;-67
2021/04/28 14:14:17;;;;;;;47.70;23.60;;;;;;;;;;5048119;28;20025;-67